Time;durP1;ratioP1;P1;durP2;ratioP2;P2;SDS_P1;SDS_P2;PMS_P1;PMS_P2;Temp;Humidity;BMP_temperature;BMP_pressure;BME280_temperature;BME280_humidity;BME280_pressure;Samples;Min_cycle;Max_cycle;Signal;HPM_P1;HPM_P2
2023/07/10 00:01:20;;;;;;;15.10;11.48;;;19.60;99.90;;;;;;4955271;28;20039;-65
2023/07/10 00:03:46;;;;;;;18.80;15.57;;;19.60;99.90;;;;;;4953697;29;20106;-65
2023/07/10 00:06:14;;;;;;;16.23;13.90;;;19.60;99.90;;;;;;4953574;29;20047;-64
2023/07/10 00:08:40;;;;;;;20.63;14.55;;;19.70;99.90;;;;;;4954722;28;20055;-66
2023/07/10 00:11:17;;;;;;;18.17;14.70;;;19.60;99.90;;;;;;4953708;29;20126;-64
2023/07/10 00:13:44;;;;;;;18.95;13.65;;;19.60;99.90;;;;;;4955101;28;20047;-64
2023/07/10 00:16:28;;;;;;;16.55;13.05;;;19.60;99.90;;;;;;4953590;29;20047;-65
2023/07/10 00:18:54;;;;;;;18.73;14.18;;;19.60;99.90;;;;;;4955097;28;20043;-64
2023/07/10 00:21:20;;;;;;;21.05;15.88;;;19.60;99.90;;;;;;4953329;29;20110;-64
2023/07/10 00:23:46;;;;;;;16.88;13.15;;;19.60;99.90;;;;;;4955101;28;20043;-65
2023/07/10 00:26:22;;;;;;;22.13;16.27;;;19.60;99.90;;;;;;4954936;28;20043;-65
2023/07/10 00:28:53;;;;;;;18.00;13.93;;;19.50;99.90;;;;;;4953831;29;20056;-65
2023/07/10 00:31:19;;;;;;;17.70;13.80;;;19.60;99.90;;;;;;4955071;28;20035;-65
2023/07/10 00:33:47;;;;;;;19.38;15.00;;;19.60;99.90;;;;;;4955016;28;20042;-65
2023/07/10 00:36:31;;;;;;;19.23;12.77;;;19.50;99.90;;;;;;4954589;28;20051;-66
2023/07/10 00:39:01;;;;;;;21.42;16.15;;;19.50;99.90;;;;;;4954748;28;20048;-65
2023/07/10 00:41:32;;;;;;;23.95;17.17;;;19.50;99.90;;;;;;4954935;28;20051;-65
2023/07/10 00:44:03;;;;;;;19.50;13.37;;;19.60;99.90;;;;;;4954703;28;20043;-66
2023/07/10 00:46:44;;;;;;;18.80;12.95;;;19.50;99.90;;;;;;4937431;29;20179;-66
2023/07/10 00:49:23;;;;;;;22.15;14.50;;;19.50;99.90;;;;;;4953383;29;20054;-66
2023/07/10 00:52:08;;;;;;;20.92;14.45;;;19.60;99.90;;;;;;4953495;29;20507;-66
2023/07/10 00:54:37;;;;;;;22.75;14.85;;;19.50;99.90;;;;;;4956423;28;20048;-66
2023/07/10 00:57:10;;;;;;;25.55;17.10;;;19.50;99.90;;;;;;4958058;28;20047;-66
2023/07/10 00:59:39;;;;;;;21.63;14.70;;;19.50;99.90;;;;;;4958075;28;20051;-66
2023/07/10 01:02:07;;;;;;;25.30;16.02;;;19.50;99.90;;;;;;4957970;28;20050;-66
2023/07/10 01:04:39;;;;;;;23.13;15.95;;;19.60;99.90;;;;;;4958211;28;20106;-66
2023/07/10 01:07:10;;;;;;;21.98;15.50;;;19.50;99.90;;;;;;4940500;29;20118;-66
2023/07/10 01:09:37;;;;;;;19.05;13.80;;;19.50;99.90;;;;;;4973023;28;20051;-65
2023/07/10 01:12:05;;;;;;;21.63;15.15;;;19.50;99.90;;;;;;4956853;29;20056;-66
2023/07/10 01:14:34;;;;;;;22.50;15.15;;;19.50;99.90;;;;;;4958078;28;20097;-66
2023/07/10 01:17:05;;;;;;;22.02;15.55;;;19.50;99.90;;;;;;4957648;28;20050;-65
2023/07/10 01:19:33;;;;;;;21.83;14.90;;;19.50;99.90;;;;;;4956480;29;20051;-65
2023/07/10 01:21:59;;;;;;;19.08;14.93;;;19.50;99.90;;;;;;4957932;28;20054;-65
2023/07/10 01:24:25;;;;;;;23.38;16.33;;;19.50;99.90;;;;;;4956570;29;20503;-65
2023/07/10 01:26:53;;;;;;;20.67;14.45;;;19.50;99.90;;;;;;4956339;29;20491;-65
2023/07/10 01:29:21;;;;;;;22.77;14.73;;;19.50;99.90;;;;;;4956321;29;20130;-65
2023/07/10 01:31:50;;;;;;;19.13;15.05;;;19.50;99.90;;;;;;4957793;28;20043;-65
2023/07/10 01:34:17;;;;;;;20.45;14.52;;;19.50;99.90;;;;;;4940159;29;20086;-65
2023/07/10 01:36:45;;;;;;;20.08;14.43;;;19.40;99.90;;;;;;4940428;29;20130;-65
2023/07/10 01:39:14;;;;;;;21.48;15.43;;;19.50;99.90;;;;;;4956201;29;20047;-65
2023/07/10 01:41:41;;;;;;;26.00;17.88;;;19.40;99.90;;;;;;4957517;28;20505;-65
2023/07/10 01:44:16;;;;;;;18.17;14.38;;;19.40;99.90;;;;;;4956028;29;20122;-65
2023/07/10 01:46:42;;;;;;;20.05;13.45;;;19.40;99.90;;;;;;4957388;28;20032;-65
2023/07/10 01:49:08;;;;;;;20.92;15.27;;;19.40;99.90;;;;;;4956278;29;20050;-65
2023/07/10 01:51:35;;;;;;;19.80;14.30;;;19.30;99.90;;;;;;4957441;28;20511;-65
2023/07/10 01:54:03;;;;;;;20.40;14.95;;;19.30;99.90;;;;;;4956050;29;20102;-65
2023/07/10 01:56:30;;;;;;;21.42;16.77;;;19.30;99.90;;;;;;4957032;28;20055;-66
2023/07/10 01:58:56;;;;;;;19.52;14.65;;;19.30;99.90;;;;;;4955989;29;20058;-65
2023/07/10 02:01:22;;;;;;;21.92;15.70;;;19.20;99.90;;;;;;4957171;28;20039;-65
2023/07/10 02:03:48;;;;;;;20.92;13.10;;;19.30;99.90;;;;;;4955745;29;20050;-65
2023/07/10 02:06:13;;;;;;;19.65;16.05;;;19.30;99.90;;;;;;4956270;28;20122;-66
2023/07/10 02:08:39;;;;;;;16.10;12.02;;;19.30;99.90;;;;;;4955423;29;20499;-65
2023/07/10 02:11:05;;;;;;;19.27;11.90;;;19.40;99.90;;;;;;4955877;29;20047;-65
2023/07/10 02:13:31;;;;;;;22.30;15.95;;;19.40;99.90;;;;;;4955394;29;20050;-65
2023/07/10 02:16:01;;;;;;;21.70;15.05;;;19.40;99.90;;;;;;4955454;29;20492;-65
2023/07/10 02:18:27;;;;;;;16.63;12.43;;;19.50;99.90;;;;;;4956737;28;20062;-65
2023/07/10 02:20:53;;;;;;;21.73;16.10;;;19.40;99.90;;;;;;4955538;29;20484;-65
2023/07/10 02:23:20;;;;;;;22.77;16.73;;;19.50;99.90;;;;;;4955367;29;20126;-65
2023/07/10 02:25:45;;;;;;;18.77;14.18;;;19.50;99.90;;;;;;4956625;28;20066;-65
2023/07/10 02:28:11;;;;;;;22.95;17.00;;;19.50;99.90;;;;;;4956404;28;20047;-65
2023/07/10 02:30:38;;;;;;;18.15;14.25;;;19.40;99.90;;;;;;4956699;28;20094;-65
2023/07/10 02:33:04;;;;;;;18.67;13.88;;;19.50;99.90;;;;;;4955334;29;20062;-65
2023/07/10 02:35:30;;;;;;;26.75;21.15;;;19.50;99.90;;;;;;4955395;29;20069;-65
2023/07/10 02:37:56;;;;;;;23.52;19.38;;;19.40;99.90;;;;;;4955083;29;20043;-65
2023/07/10 02:40:22;;;;;;;23.35;18.88;;;19.30;99.90;;;;;;4956511;28;20066;-65
2023/07/10 02:42:47;;;;;;;18.88;14.02;;;19.30;99.90;;;;;;4938975;29;20047;-65
2023/07/10 02:45:14;;;;;;;19.17;15.60;;;19.40;99.90;;;;;;4956296;28;20062;-65
2023/07/10 02:47:40;;;;;;;17.80;14.32;;;19.40;99.90;;;;;;4955171;29;20043;-65
2023/07/10 02:50:08;;;;;;;26.10;20.67;;;19.40;99.90;;;;;;4955038;29;20054;-65
2023/07/10 02:52:34;;;;;;;21.65;18.17;;;19.40;99.90;;;;;;4955040;29;20039;-65
2023/07/10 02:55:00;;;;;;;28.40;23.15;;;19.40;99.90;;;;;;4956194;28;20529;-65
2023/07/10 02:57:26;;;;;;;23.58;19.85;;;19.30;99.90;;;;;;4954534;29;20050;-65
2023/07/10 02:59:52;;;;;;;22.95;17.40;;;19.30;99.90;;;;;;4956128;28;20070;-65
2023/07/10 03:02:18;;;;;;;20.70;16.60;;;19.30;99.90;;;;;;4956123;28;20035;-65
2023/07/10 03:04:44;;;;;;;24.60;19.85;;;19.40;99.90;;;;;;4938956;29;20039;-66
2023/07/10 03:07:10;;;;;;;20.85;16.10;;;19.40;99.90;;;;;;4954621;29;20062;-66
2023/07/10 03:09:35;;;;;;;24.05;18.88;;;19.40;99.90;;;;;;4954644;29;20106;-66
2023/07/10 03:12:01;;;;;;;25.75;19.67;;;19.40;99.90;;;;;;4955635;28;20043;-64
2023/07/10 03:14:27;;;;;;;22.80;18.85;;;19.30;99.90;;;;;;4954637;29;20130;-65
2023/07/10 03:16:53;;;;;;;21.15;16.45;;;19.30;99.90;;;;;;4955530;28;20046;-65
2023/07/10 03:19:19;;;;;;;25.98;19.73;;;19.30;99.90;;;;;;4938626;29;20059;-65
2023/07/10 03:21:45;;;;;;;21.98;17.77;;;19.40;99.90;;;;;;4955514;28;20047;-65
2023/07/10 03:24:11;;;;;;;21.63;15.95;;;19.30;99.90;;;;;;4954464;29;20032;-65
2023/07/10 03:26:36;;;;;;;24.15;17.48;;;19.40;99.90;;;;;;4955305;28;20106;-65
2023/07/10 03:29:09;;;;;;;25.70;20.98;;;19.30;99.90;;;;;;4955629;28;20047;-66
2023/07/10 03:31:35;;;;;;;24.88;20.55;;;19.40;99.90;;;;;;4938518;29;20491;-66
2023/07/10 03:34:01;;;;;;;21.10;15.98;;;19.40;99.90;;;;;;4954218;29;20098;-65
2023/07/10 03:36:27;;;;;;;28.10;21.88;;;19.40;99.90;;;;;;4955531;28;20514;-66
2023/07/10 03:38:53;;;;;;;25.83;20.67;;;19.40;99.90;;;;;;4955269;28;20043;-65
2023/07/10 03:41:19;;;;;;;22.55;16.45;;;19.40;99.90;;;;;;4953941;29;20057;-66
2023/07/10 03:43:48;;;;;;;35.97;26.17;;;19.40;99.90;;;;;;4954321;29;20098;-66
2023/07/10 03:46:16;;;;;;;26.52;19.67;;;19.40;99.90;;;;;;4954251;29;20400;-65
2023/07/10 03:48:42;;;;;;;25.95;21.15;;;19.40;99.90;;;;;;4955100;28;20097;-65
2023/07/10 03:51:08;;;;;;;20.38;15.52;;;19.40;99.90;;;;;;4955019;28;20035;-66
2023/07/10 03:53:34;;;;;;;18.60;15.05;;;19.40;99.90;;;;;;4955067;28;20047;-66
2023/07/10 03:55:59;;;;;;;20.20;16.77;;;19.40;99.90;;;;;;4955258;28;20043;-64
2023/07/10 03:58:28;;;;;;;30.63;24.85;;;19.40;99.90;;;;;;4955277;28;20503;-65
2023/07/10 04:00:55;;;;;;;23.02;19.98;;;19.50;99.90;;;;;;4955331;28;20388;-66
2023/07/10 04:03:24;;;;;;;23.55;19.48;;;19.50;99.90;;;;;;4953977;29;20134;-66
2023/07/10 04:05:52;;;;;;;24.45;19.83;;;19.50;99.90;;;;;;4953866;29;20384;-65
2023/07/10 04:08:22;;;;;;;25.23;21.33;;;19.40;99.90;;;;;;4954746;28;20058;-65
2023/07/10 04:10:49;;;;;;;25.10;20.38;;;19.50;99.90;;;;;;4953728;29;20039;-66
2023/07/10 04:13:15;;;;;;;32.75;23.88;;;19.40;99.90;;;;;;4953985;29;20039;-66
2023/07/10 04:15:40;;;;;;;27.23;20.98;;;19.40;99.90;;;;;;4953634;29;20483;-66
2023/07/10 04:18:06;;;;;;;25.52;21.13;;;19.40;99.90;;;;;;4937861;29;20451;-66
2023/07/10 04:20:32;;;;;;;25.83;23.00;;;19.40;99.90;;;;;;4953637;29;20475;-65
2023/07/10 04:22:58;;;;;;;32.75;26.88;;;19.40;99.90;;;;;;4954754;28;20086;-65
2023/07/10 04:25:23;;;;;;;22.70;18.85;;;19.40;99.90;;;;;;4954666;28;20094;-65
2023/07/10 04:27:49;;;;;;;26.30;22.48;;;19.40;99.90;;;;;;4953821;29;20038;-65
2023/07/10 04:30:15;;;;;;;33.22;28.00;;;19.40;99.90;;;;;;4956786;29;20158;-65
2023/07/10 04:32:41;;;;;;;22.75;19.55;;;19.30;99.90;;;;;;4958852;28;20203;-65
2023/07/10 04:35:08;;;;;;;25.52;21.77;;;19.40;99.90;;;;;;4957588;29;20153;-65
2023/07/10 04:37:33;;;;;;;32.08;27.15;;;19.40;99.90;;;;;;4958684;29;20046;-65
2023/07/10 04:39:59;;;;;;;36.72;29.35;;;19.40;99.90;;;;;;4958360;28;20035;-66
2023/07/10 04:42:25;;;;;;;22.63;20.05;;;19.40;99.90;;;;;;4941190;29;20050;-66
2023/07/10 04:44:51;;;;;;;20.25;17.40;;;19.40;99.90;;;;;;4958599;28;20047;-65
2023/07/10 04:47:16;;;;;;;23.27;19.13;;;19.40;99.90;;;;;;4956997;29;20114;-66
2023/07/10 04:49:42;;;;;;;24.33;20.60;;;19.40;99.90;;;;;;4941361;29;20126;-66
2023/07/10 04:52:08;;;;;;;25.65;21.80;;;19.40;99.90;;;;;;4956980;29;20061;-66
2023/07/10 04:54:34;;;;;;;27.48;23.25;;;19.40;99.90;;;;;;4958114;28;20043;-66
2023/07/10 04:56:59;;;;;;;30.23;25.38;;;19.40;99.90;;;;;;4940885;29;20065;-65
2023/07/10 04:59:25;;;;;;;30.77;24.50;;;19.50;99.90;;;;;;4956923;29;20043;-65
2023/07/10 05:01:51;;;;;;;27.73;21.88;;;19.50;99.90;;;;;;4958328;28;20039;-65
2023/07/10 05:04:17;;;;;;;31.42;26.77;;;19.50;99.90;;;;;;4956682;29;20452;-65
2023/07/10 05:06:42;;;;;;;25.63;21.60;;;19.50;99.90;;;;;;4940925;29;20051;-65
2023/07/10 05:09:08;;;;;;;22.98;19.23;;;19.40;99.90;;;;;;4940377;29;20106;-65
2023/07/10 05:11:34;;;;;;;20.50;16.50;;;19.40;99.90;;;;;;4957815;28;20094;-65
2023/07/10 05:14:00;;;;;;;20.75;18.55;;;19.50;99.90;;;;;;4957800;28;20075;-66
2023/07/10 05:16:26;;;;;;;22.05;18.48;;;19.60;99.90;;;;;;4957659;28;20055;-65
2023/07/10 05:18:51;;;;;;;25.13;21.10;;;19.50;99.90;;;;;;4956816;29;20048;-65
2023/07/10 05:21:17;;;;;;;23.08;18.85;;;19.50;99.90;;;;;;4956552;29;20510;-65
2023/07/10 05:23:46;;;;;;;25.15;21.17;;;19.50;99.90;;;;;;4957854;28;20035;-65
2023/07/10 05:26:15;;;;;;;28.30;21.70;;;19.40;99.90;;;;;;4957817;28;20071;-65
2023/07/10 05:28:41;;;;;;;21.20;18.55;;;19.40;99.90;;;;;;4956585;29;20483;-65
2023/07/10 05:31:08;;;;;;;27.80;23.83;;;19.40;99.90;;;;;;4956527;29;20395;-66
2023/07/10 05:33:37;;;;;;;21.60;19.30;;;19.40;99.90;;;;;;4956144;29;20054;-65
2023/07/10 05:36:06;;;;;;;24.13;20.98;;;19.40;99.90;;;;;;4957755;28;20087;-65
2023/07/10 05:38:33;;;;;;;23.58;20.50;;;19.40;99.90;;;;;;4956379;29;20043;-65
2023/07/10 05:40:59;;;;;;;24.30;20.38;;;19.50;99.90;;;;;;4956431;28;20043;-66
2023/07/10 05:43:28;;;;;;;24.80;20.83;;;19.50;99.90;;;;;;4957631;28;20047;-65
2023/07/10 05:45:54;;;;;;;24.25;20.58;;;19.40;99.90;;;;;;4957414;28;20039;-65
2023/07/10 05:48:20;;;;;;;24.23;20.75;;;19.50;99.90;;;;;;4956210;29;20048;-66
2023/07/10 05:50:47;;;;;;;26.55;20.95;;;19.40;99.90;;;;;;4957244;28;20039;-65
2023/07/10 05:53:14;;;;;;;22.00;17.30;;;19.40;99.90;;;;;;4957309;28;20391;-66
2023/07/10 05:55:47;;;;;;;22.70;18.08;;;19.50;99.90;;;;;;4957346;28;20133;-65
2023/07/10 05:58:14;;;;;;;16.27;14.57;;;19.50;99.90;;;;;;4957353;28;20100;-67
2023/07/10 06:00:43;;;;;;;16.17;13.25;;;19.50;99.90;;;;;;4956068;29;20469;-65
2023/07/10 06:03:10;;;;;;;16.02;13.15;;;19.60;99.90;;;;;;4956913;28;20047;-67
2023/07/10 06:05:36;;;;;;;16.20;12.25;;;19.50;99.90;;;;;;4943052;29;20106;-69
2023/07/10 06:08:02;;;;;;;15.75;11.40;;;19.50;99.90;;;;;;4956655;29;20047;-68
2023/07/10 06:10:28;;;;;;;13.63;10.60;;;19.50;99.90;;;;;;4957131;29;20047;-65
2023/07/10 06:12:54;;;;;;;12.93;10.70;;;19.60;99.90;;;;;;4956659;29;20561;-67
2023/07/10 06:15:19;;;;;;;15.35;9.90;;;19.70;99.90;;;;;;4939823;29;20097;-65
2023/07/10 06:17:45;;;;;;;12.65;8.70;;;19.70;99.90;;;;;;4939834;29;20039;-65
2023/07/10 06:20:11;;;;;;;13.88;9.52;;;19.70;99.90;;;;;;4939352;29;20075;-65
2023/07/10 06:22:37;;;;;;;13.00;9.32;;;19.60;99.90;;;;;;4956813;29;20031;-65
2023/07/10 06:25:03;;;;;;;11.85;8.05;;;19.60;99.90;;;;;;4956477;29;20047;-65
2023/07/10 06:27:29;;;;;;;12.20;6.90;;;19.70;99.90;;;;;;4956728;29;20047;-65
2023/07/10 06:29:56;;;;;;;10.52;6.72;;;19.70;99.90;;;;;;4956356;29;20089;-65
2023/07/10 06:32:22;;;;;;;9.23;5.93;;;19.70;99.90;;;;;;4956627;29;20098;-65
2023/07/10 06:34:48;;;;;;;11.35;5.70;;;19.70;99.90;;;;;;4939440;29;20035;-64
2023/07/10 06:37:13;;;;;;;9.23;4.85;;;19.70;99.90;;;;;;4939075;29;20039;-64
2023/07/10 06:39:39;;;;;;;9.07;5.07;;;19.70;99.90;;;;;;4939306;29;20068;-64
2023/07/10 06:42:05;;;;;;;9.55;5.00;;;19.80;99.90;;;;;;4956239;29;20035;-65
2023/07/10 06:44:31;;;;;;;7.85;4.18;;;19.80;99.90;;;;;;4938962;29;20046;-65
2023/07/10 06:46:57;;;;;;;8.60;4.95;;;19.90;99.90;;;;;;4923151;29;20484;-65
2023/07/10 06:49:23;;;;;;;8.32;4.20;;;19.90;99.90;;;;;;4955954;29;20039;-65
2023/07/10 06:51:48;;;;;;;7.95;4.30;;;19.90;99.90;;;;;;4938765;29;20105;-64
2023/07/10 06:54:14;;;;;;;12.05;4.30;;;19.90;99.90;;;;;;4955961;29;20550;-64
2023/07/10 06:56:40;;;;;;;8.23;3.90;;;20.00;99.90;;;;;;4938947;29;20064;-64
2023/07/10 06:59:06;;;;;;;7.95;4.15;;;20.10;99.90;;;;;;4956166;29;20392;-64
2023/07/10 07:01:34;;;;;;;9.05;4.00;;;20.20;99.90;;;;;;4938996;29;20455;-64
2023/07/10 07:04:00;;;;;;;8.73;3.67;;;20.20;99.90;;;;;;4955716;29;20043;-66
2023/07/10 07:06:26;;;;;;;8.13;3.72;;;20.40;99.90;;;;;;4955573;29;20050;-64
2023/07/10 07:08:52;;;;;;;8.57;3.40;;;20.50;99.90;;;;;;4948091;29;20051;-64
2023/07/10 07:11:18;;;;;;;9.15;3.45;;;20.60;99.90;;;;;;4955683;29;20056;-63
2023/07/10 07:13:44;;;;;;;8.93;3.67;;;20.80;99.90;;;;;;4955988;29;20566;-64
2023/07/10 07:16:10;;;;;;;7.93;3.45;;;20.90;99.90;;;;;;4931200;28;20054;-63
2023/07/10 07:18:36;;;;;;;6.90;3.40;;;21.00;99.90;;;;;;4956085;28;20047;-64
2023/07/10 07:21:02;;;;;;;8.32;3.50;;;21.30;99.90;;;;;;4955463;29;20036;-64
2023/07/10 07:23:28;;;;;;;9.40;3.20;;;22.00;99.90;;;;;;4938487;29;20043;-64
2023/07/10 07:25:54;;;;;;;9.95;3.22;;;22.50;99.90;;;;;;4954201;29;20101;-65
2023/07/10 07:28:21;;;;;;;8.13;3.05;;;22.80;99.90;;;;;;4955748;28;20110;-65
2023/07/10 07:30:49;;;;;;;7.72;3.10;;;22.90;99.90;;;;;;4954347;29;20602;-65
2023/07/10 07:33:17;;;;;;;9.35;3.30;;;23.20;99.90;;;;;;4955405;29;20039;-65
2023/07/10 07:35:42;;;;;;;8.07;2.85;;;23.30;99.90;;;;;;4938061;29;20092;-65
2023/07/10 07:38:08;;;;;;;10.23;3.10;;;23.70;99.90;;;;;;4955158;29;20074;-65
2023/07/10 07:40:36;;;;;;;8.90;2.72;;;24.00;99.90;;;;;;4955528;29;20035;-66
2023/07/10 07:43:02;;;;;;;8.88;3.10;;;24.30;99.90;;;;;;4955403;28;20051;-64
2023/07/10 07:45:27;;;;;;;8.57;2.90;;;24.70;99.90;;;;;;4955318;28;20051;-64
2023/07/10 07:47:56;;;;;;;7.88;2.70;;;24.90;99.90;;;;;;4955412;28;20117;-65
2023/07/10 07:50:22;;;;;;;6.75;2.60;;;25.00;99.90;;;;;;4953836;29;20047;-65
2023/07/10 07:52:48;;;;;;;9.82;3.00;;;25.10;99.90;;;;;;4953864;29;20126;-65
2023/07/10 07:55:14;;;;;;;7.70;2.83;;;25.30;99.90;;;;;;4954129;28;20035;-65
2023/07/10 07:57:40;;;;;;;8.10;2.72;;;25.40;99.90;;;;;;4953134;29;20062;-65
2023/07/10 08:00:06;;;;;;;8.05;2.70;;;25.50;99.90;;;;;;4955172;29;20044;-67
2023/07/10 08:02:32;;;;;;;7.68;2.80;;;25.70;99.90;;;;;;4955050;28;20042;-69
2023/07/10 08:05:00;;;;;;;6.88;2.58;;;25.80;99.90;;;;;;4952482;29;20047;-65
2023/07/10 08:07:26;;;;;;;7.55;2.67;;;25.70;99.90;;;;;;4954919;28;20047;-64
2023/07/10 08:09:52;;;;;;;9.25;2.63;;;25.70;99.90;;;;;;4954782;29;20106;-65
2023/07/10 08:12:18;;;;;;;7.28;2.47;;;25.60;99.90;;;;;;4953658;29;20075;-63
2023/07/10 08:14:43;;;;;;;9.18;2.65;;;25.50;99.90;;;;;;4955077;29;20039;-66
2023/07/10 08:17:10;;;;;;;7.80;2.65;;;25.40;99.90;;;;;;4954683;29;20132;-65
2023/07/10 08:19:36;;;;;;;8.68;2.22;;;25.30;99.90;;;;;;4955149;29;20065;-62
2023/07/10 08:22:01;;;;;;;9.60;2.47;;;25.30;99.90;;;;;;4954795;28;20122;-64
2023/07/10 08:24:27;;;;;;;6.57;2.28;;;25.40;99.90;;;;;;4953845;29;20039;-64
2023/07/10 08:26:56;;;;;;;7.22;2.15;;;25.40;99.90;;;;;;4953523;29;20036;-63
2023/07/10 08:29:30;;;;;;;7.63;2.30;;;25.50;99.90;;;;;;4954991;29;20047;-62
2023/07/10 08:31:58;;;;;;;7.38;2.20;;;25.70;99.90;;;;;;4953735;29;20047;-63
2023/07/10 08:34:26;;;;;;;7.95;2.70;;;25.70;99.90;;;;;;4954977;29;20106;-64
2023/07/10 08:36:53;;;;;;;7.93;2.20;;;25.80;99.90;;;;;;4937726;29;20058;-63
2023/07/10 08:39:21;;;;;;;10.73;2.42;;;25.90;99.90;;;;;;4954825;28;20051;-63
2023/07/10 08:41:56;;;;;;;7.93;2.38;;;25.80;99.90;;;;;;4954565;29;20043;-63
2023/07/10 08:44:30;;;;;;;8.10;2.60;;;25.80;99.30;;;;;;4954860;29;20391;-64
2023/07/10 08:46:59;;;;;;;8.50;2.40;;;25.80;99.80;;;;;;4954560;29;20138;-65
2023/07/10 08:49:30;;;;;;;8.25;2.42;;;25.80;99.90;;;;;;4954619;29;20412;-63
2023/07/10 08:52:11;;;;;;;9.13;2.30;;;25.90;98.80;;;;;;4954860;29;20035;-63
2023/07/10 08:54:37;;;;;;;8.57;2.20;;;25.90;99.70;;;;;;4954779;28;20035;-63
2023/07/10 08:57:15;;;;;;;7.95;2.38;;;26.10;99.90;;;;;;4954722;29;20043;-63
2023/07/10 09:00:06;;;;;;;9.50;2.53;;;26.30;99.70;;;;;;4954765;29;20130;-62
2023/07/10 09:02:43;;;;;;;8.90;2.40;;;26.50;99.20;;;;;;4954332;29;20039;-64
2023/07/10 09:05:15;;;;;;;8.50;2.47;;;26.50;99.20;;;;;;4953169;29;20051;-64
2023/07/10 09:07:44;;;;;;;9.48;2.33;;;26.40;99.10;;;;;;4954478;29;20059;-63
2023/07/10 09:10:19;;;;;;;7.70;2.40;;;26.50;98.50;;;;;;4954574;28;20043;-63
2023/07/10 09:12:59;;;;;;;9.55;2.40;;;26.40;97.10;;;;;;4954374;29;20039;-63
2023/07/10 09:15:32;;;;;;;8.45;2.63;;;26.20;96.70;;;;;;4956264;28;20039;-63
2023/07/10 09:18:23;;;;;;;9.27;2.70;;;26.20;97.10;;;;;;4958075;29;20523;-64
2023/07/10 09:20:53;;;;;;;9.05;2.60;;;26.30;97.00;;;;;;4956657;29;20602;-63
2023/07/10 09:23:33;;;;;;;8.75;2.40;;;26.50;96.80;;;;;;4957927;29;20562;-63
2023/07/10 09:26:13;;;;;;;8.60;2.45;;;26.60;97.10;;;;;;4956848;29;20117;-63
2023/07/10 09:28:40;;;;;;;7.00;2.42;;;26.70;96.40;;;;;;4957130;29;20045;-63
2023/07/10 09:31:08;;;;;;;8.82;2.40;;;26.70;96.30;;;;;;4957784;29;20043;-63
2023/07/10 09:33:50;;;;;;;9.13;2.55;;;26.70;94.90;;;;;;4957439;28;20043;-62
2023/07/10 09:36:20;;;;;;;8.07;2.30;;;26.60;95.10;;;;;;4957488;29;20125;-63
2023/07/10 09:38:48;;;;;;;8.90;2.70;;;26.80;96.00;;;;;;4957352;29;20043;-64
2023/07/10 09:41:21;;;;;;;8.13;2.47;;;26.80;94.90;;;;;;4957248;29;20099;-63
2023/07/10 09:43:57;;;;;;;8.65;2.50;;;26.90;94.60;;;;;;4957536;29;20035;-62
2023/07/10 09:46:29;;;;;;;8.43;2.50;;;26.80;94.80;;;;;;4957445;29;20054;-62
2023/07/10 09:48:56;;;;;;;8.43;2.58;;;26.90;95.70;;;;;;4957545;28;20062;-61
2023/07/10 09:51:26;;;;;;;8.75;2.40;;;27.00;94.20;;;;;;4957383;29;20546;-62
2023/07/10 09:53:54;;;;;;;9.57;2.50;;;26.70;94.30;;;;;;4955884;29;20047;-62
2023/07/10 09:56:20;;;;;;;9.70;2.50;;;26.70;95.00;;;;;;4957320;28;20118;-63
2023/07/10 09:58:46;;;;;;;9.27;2.40;;;26.80;94.80;;;;;;4955768;29;20491;-62
2023/07/10 10:01:12;;;;;;;8.50;2.22;;;26.90;94.90;;;;;;4956235;29;20050;-62
2023/07/10 10:03:41;;;;;;;8.55;2.25;;;27.20;95.00;;;;;;4956907;29;20058;-62
2023/07/10 10:06:21;;;;;;;8.32;2.60;;;27.40;93.30;;;;;;4956812;29;20051;-63
2023/07/10 10:08:48;;;;;;;9.82;2.78;;;27.40;93.00;;;;;;4955546;29;20059;-63
2023/07/10 10:11:14;;;;;;;9.10;2.50;;;27.50;94.30;;;;;;4957141;29;20035;-62
2023/07/10 10:13:42;;;;;;;8.65;2.60;;;27.60;93.50;;;;;;4956929;29;20110;-62
2023/07/10 10:16:22;;;;;;;10.18;2.80;;;27.60;92.60;;;;;;4955725;29;20524;-62
2023/07/10 10:19:21;;;;;;;9.57;2.53;;;27.50;92.80;;;;;;4956705;29;20040;-62
2023/07/10 10:21:47;;;;;;;8.05;2.50;;;27.50;92.60;;;;;;4939386;29;20043;-62
2023/07/10 10:24:13;;;;;;;7.15;2.65;;;27.50;93.10;;;;;;4956711;29;20078;-63
2023/07/10 10:27:11;;;;;;;9.05;2.65;;;27.40;92.30;;;;;;4954590;28;20101;-62
2023/07/10 10:30:11;;;;;;;7.45;2.70;;;27.50;93.10;;;;;;4956771;29;20078;-62
2023/07/10 10:32:59;;;;;;;10.25;2.70;;;27.40;92.80;;;;;;4956303;29;20043;-62
2023/07/10 10:36:00;;;;;;;9.68;2.60;;;27.40;92.40;;;;;;4956270;29;20047;-63
2023/07/10 10:38:45;;;;;;;7.68;2.47;;;27.10;92.90;;;;;;4949420;28;20051;-62
2023/07/10 10:41:30;;;;;;;10.15;2.85;;;27.10;92.00;;;;;;4956276;29;20047;-62
2023/07/10 10:44:07;;;;;;;7.88;2.58;;;27.30;93.00;;;;;;4956237;28;20050;-63
2023/07/10 10:46:47;;;;;;;9.02;2.67;;;27.40;92.90;;;;;;4956344;28;20085;-62
2023/07/10 10:49:15;;;;;;;10.98;2.75;;;27.20;91.90;;;;;;4956413;29;20046;-62
2023/07/10 10:52:17;;;;;;;8.40;2.60;;;27.00;92.20;;;;;;4956351;28;20110;-63
2023/07/10 10:54:59;;;;;;;10.20;2.50;;;26.80;92.10;;;;;;4956276;28;20043;-63
2023/07/10 10:57:33;;;;;;;9.48;2.60;;;27.00;91.80;;;;;;4956004;29;20047;-63
2023/07/10 11:00:25;;;;;;;10.27;2.47;;;27.00;92.10;;;;;;4955906;28;20090;-62
2023/07/10 11:03:21;;;;;;;8.20;2.28;;;27.00;91.30;;;;;;4954798;29;20047;-62
2023/07/10 11:05:54;;;;;;;7.88;2.03;;;26.90;90.90;;;;;;4970663;28;20043;-62
2023/07/10 11:08:24;;;;;;;7.75;2.50;;;26.60;90.60;;;;;;4954269;29;20062;-62
2023/07/10 11:10:52;;;;;;;10.85;2.65;;;26.50;91.10;;;;;;4954429;29;20040;-61
2023/07/10 11:13:30;;;;;;;9.52;2.53;;;26.70;91.30;;;;;;4954433;29;20069;-62
2023/07/10 11:15:56;;;;;;;9.65;2.38;;;26.60;91.40;;;;;;4955575;29;20054;-62
2023/07/10 11:18:23;;;;;;;7.75;2.17;;;26.80;91.80;;;;;;4954362;29;20054;-63
2023/07/10 11:20:49;;;;;;;10.40;2.67;;;26.90;91.80;;;;;;4955465;29;20055;-63
2023/07/10 11:23:35;;;;;;;6.85;2.10;;;27.00;92.00;;;;;;4955518;29;20083;-64
2023/07/10 11:26:07;;;;;;;10.07;2.40;;;27.20;91.00;;;;;;4955651;29;20043;-63
2023/07/10 11:28:33;;;;;;;;;;;27.40;91.60;;;;;;4955895;29;20039;-63
2023/07/10 11:31:22;;;;;;;7.57;2.15;;;27.30;90.30;;;;;;4938346;29;19922;-64
2023/07/10 11:33:59;;;;;;;9.00;2.13;;;27.50;89.60;;;;;;4955733;28;20118;-66
2023/07/10 11:36:24;;;;;;;7.60;2.28;;;27.70;88.00;;;;;;4955590;29;20069;-63
2023/07/10 11:38:55;;;;;;;8.32;2.33;;;27.70;88.30;;;;;;4954359;28;20039;-63
2023/07/10 11:41:29;;;;;;;9.55;2.42;;;27.70;88.50;;;;;;4955171;29;20043;-63
2023/07/10 11:44:32;;;;;;;7.72;2.25;;;27.70;89.50;;;;;;4955136;28;20043;-63
2023/07/10 11:47:01;;;;;;;7.70;2.30;;;27.80;89.40;;;;;;4954552;28;20051;-63
2023/07/10 11:49:40;;;;;;;9.07;2.05;;;28.00;88.20;;;;;;4954223;29;20508;-62
2023/07/10 11:52:14;;;;;;;9.85;2.50;;;28.00;87.00;;;;;;4955343;29;20427;-62
2023/07/10 11:54:47;;;;;;;6.43;1.98;;;27.60;83.60;;;;;;4955393;29;20043;-63
2023/07/10 11:57:39;;;;;;;8.57;2.30;;;27.40;86.10;;;;;;4955289;28;20043;-63
2023/07/10 12:00:14;;;;;;;7.93;2.00;;;27.50;86.20;;;;;;4952264;29;20051;-63
2023/07/10 12:02:52;;;;;;;7.47;2.13;;;27.60;86.60;;;;;;4969886;28;20043;-62
2023/07/10 12:05:34;;;;;;;8.73;2.47;;;27.70;83.80;;;;;;4953913;29;20122;-63
2023/07/10 12:08:17;;;;;;;9.30;2.10;;;27.70;85.20;;;;;;4954759;28;20059;-63
2023/07/10 12:10:47;;;;;;;7.40;2.10;;;27.50;84.20;;;;;;4953681;29;20039;-63
2023/07/10 12:13:23;;;;;;;8.20;2.22;;;27.10;84.50;;;;;;4955127;29;20546;-62
2023/07/10 12:15:51;;;;;;;8.25;2.10;;;26.50;85.60;;;;;;4955097;29;20054;-62
2023/07/10 12:18:24;;;;;;;8.20;2.05;;;26.20;88.10;;;;;;4954794;29;20039;-62
2023/07/10 12:20:53;;;;;;;9.15;2.40;;;26.10;89.50;;;;;;4955107;29;20502;-62
2023/07/10 12:23:19;;;;;;;8.88;2.30;;;26.20;90.00;;;;;;4954992;28;20051;-62
2023/07/10 12:25:53;;;;;;;9.10;2.30;;;26.10;89.10;;;;;;4953577;29;20134;-63
2023/07/10 12:28:22;;;;;;;7.60;2.22;;;26.10;89.70;;;;;;4954774;29;20050;-62
2023/07/10 12:30:52;;;;;;;8.40;2.20;;;26.30;90.00;;;;;;4954730;29;20043;-62
2023/07/10 12:33:48;;;;;;;9.20;2.35;;;26.30;90.20;;;;;;4955000;29;20051;-63
2023/07/10 12:36:20;;;;;;;8.02;2.20;;;26.10;88.90;;;;;;4954984;29;20094;-63
2023/07/10 12:38:46;;;;;;;7.00;2.20;;;25.80;89.40;;;;;;4953694;29;20404;-62
2023/07/10 12:41:12;;;;;;;7.97;2.10;;;25.70;89.00;;;;;;4953511;29;20051;-62
2023/07/10 12:43:38;;;;;;;7.05;2.00;;;25.80;89.30;;;;;;4954615;29;20051;-62
2023/07/10 12:46:16;;;;;;;10.02;2.17;;;26.00;89.00;;;;;;4954494;29;20094;-63
2023/07/10 12:48:42;;;;;;;8.82;2.20;;;25.90;86.70;;;;;;4954570;29;20050;-62